sensor_id;sensor_type;location;lat;lon;timestamp;pressure;altitude;pressure_sealevel;temperature;humidity
48874;BME280;66155;46.204;5.220;2022-12-29T00:02:20;98806.84;;;10.88;68.54
48874;BME280;66155;46.204;5.220;2022-12-29T00:07:21;98807.38;;;10.90;68.62
48874;BME280;66155;46.204;5.220;2022-12-29T00:12:21;98804.78;;;10.90;69.01
48874;BME280;66155;46.204;5.220;2022-12-29T00:17:22;98784.41;;;10.87;69.11
48874;BME280;66155;46.204;5.220;2022-12-29T00:22:22;98813.63;;;10.89;68.62
48874;BME280;66155;46.204;5.220;2022-12-29T00:27:41;98812.06;;;10.88;68.99
48874;BME280;66155;46.204;5.220;2022-12-29T00:33:16;98806.31;;;10.86;69.22
48874;BME280;66155;46.204;5.220;2022-12-29T00:38:38;98801.56;;;10.82;69.08
48874;BME280;66155;46.204;5.220;2022-12-29T00:43:58;98791.69;;;10.84;68.63
48874;BME280;66155;46.204;5.220;2022-12-29T00:49:10;98805.75;;;10.83;68.85
48874;BME280;66155;46.204;5.220;2022-12-29T00:54:31;98800.28;;;10.85;69.31
48874;BME280;66155;46.204;5.220;2022-12-29T00:59:31;98826.34;;;10.85;69.22
48874;BME280;66155;46.204;5.220;2022-12-29T01:04:32;98814.59;;;10.82;69.05
48874;BME280;66155;46.204;5.220;2022-12-29T01:09:32;98800.78;;;10.82;69.75
48874;BME280;66155;46.204;5.220;2022-12-29T01:14:52;98793.50;;;10.84;69.43
48874;BME280;66155;46.204;5.220;2022-12-29T01:19:52;98794.59;;;10.88;69.25
48874;BME280;66155;46.204;5.220;2022-12-29T01:24:52;98781.03;;;10.86;69.37
48874;BME280;66155;46.204;5.220;2022-12-29T01:29:53;98765.09;;;10.82;69.69
48874;BME280;66155;46.204;5.220;2022-12-29T01:34:53;98786.00;;;10.88;69.33
48874;BME280;66155;46.204;5.220;2022-12-29T01:39:54;98768.53;;;10.88;69.74
48874;BME280;66155;46.204;5.220;2022-12-29T01:49:57;98750.03;;;10.90;69.93
48874;BME280;66155;46.204;5.220;2022-12-29T01:54:59;98753.66;;;10.89;70.37
48874;BME280;66155;46.204;5.220;2022-12-29T02:00:09;98742.94;;;10.85;70.20
48874;BME280;66155;46.204;5.220;2022-12-29T02:05:19;98751.81;;;10.84;70.83
48874;BME280;66155;46.204;5.220;2022-12-29T02:10:23;98733.31;;;10.86;70.56
48874;BME280;66155;46.204;5.220;2022-12-29T02:15:41;98747.91;;;10.87;70.43
48874;BME280;66155;46.204;5.220;2022-12-29T02:31:16;98731.00;;;10.89;69.94
48874;BME280;66155;46.204;5.220;2022-12-29T02:52:16;98710.44;;;10.93;70.09
48874;BME280;66155;46.204;5.220;2022-12-29T03:13:01;98696.41;;;10.99;68.89
48874;BME280;66155;46.204;5.220;2022-12-29T03:18:46;98688.06;;;10.97;68.65
48874;BME280;66155;46.204;5.220;2022-12-29T03:23:49;98680.22;;;10.97;68.52
48874;BME280;66155;46.204;5.220;2022-12-29T03:28:53;98678.91;;;10.94;68.25
48874;BME280;66155;46.204;5.220;2022-12-29T03:33:58;98669.00;;;10.91;68.05
48874;BME280;66155;46.204;5.220;2022-12-29T03:39:06;98685.16;;;10.93;67.54
48874;BME280;66155;46.204;5.220;2022-12-29T03:44:09;98673.69;;;10.94;67.34
48874;BME280;66155;46.204;5.220;2022-12-29T03:49:10;98672.91;;;10.94;67.38
48874;BME280;66155;46.204;5.220;2022-12-29T03:54:10;98678.66;;;10.96;67.23
48874;BME280;66155;46.204;5.220;2022-12-29T03:59:11;98670.81;;;10.96;66.86
48874;BME280;66155;46.204;5.220;2022-12-29T04:04:11;98660.97;;;10.98;66.63
48874;BME280;66155;46.204;5.220;2022-12-29T04:09:12;98644.28;;;10.99;66.07
48874;BME280;66155;46.204;5.220;2022-12-29T04:14:12;98651.34;;;11.03;65.87
48874;BME280;66155;46.204;5.220;2022-12-29T04:19:12;98649.00;;;11.02;65.40
48874;BME280;66155;46.204;5.220;2022-12-29T04:24:13;98653.16;;;11.03;65.55
48874;BME280;66155;46.204;5.220;2022-12-29T04:29:15;98650.00;;;11.01;65.10
48874;BME280;66155;46.204;5.220;2022-12-29T04:34:15;98663.06;;;11.01;65.21
48874;BME280;66155;46.204;5.220;2022-12-29T04:39:16;98650.53;;;11.03;64.61
48874;BME280;66155;46.204;5.220;2022-12-29T04:44:16;98646.09;;;10.98;64.74
48874;BME280;66155;46.204;5.220;2022-12-29T04:49:17;98649.00;;;11.02;64.28
48874;BME280;66155;46.204;5.220;2022-12-29T04:54:17;98653.97;;;11.03;64.10
48874;BME280;66155;46.204;5.220;2022-12-29T04:59:17;98664.69;;;11.07;64.15
48874;BME280;66155;46.204;5.220;2022-12-29T05:04:18;98656.84;;;11.07;63.87
48874;BME280;66155;46.204;5.220;2022-12-29T05:09:18;98655.56;;;11.10;63.55
48874;BME280;66155;46.204;5.220;2022-12-29T05:14:19;98655.31;;;11.11;63.22
48874;BME280;66155;46.204;5.220;2022-12-29T05:19:19;98645.91;;;11.10;63.00
48874;BME280;66155;46.204;5.220;2022-12-29T05:24:20;98645.91;;;11.10;63.04
48874;BME280;66155;46.204;5.220;2022-12-29T05:29:20;98656.31;;;11.05;62.51
48874;BME280;66155;46.204;5.220;2022-12-29T05:34:21;98647.94;;;10.98;62.89
48874;BME280;66155;46.204;5.220;2022-12-29T05:39:21;98651.31;;;10.98;62.83
48874;BME280;66155;46.204;5.220;2022-12-29T05:44:22;98667.19;;;10.97;63.00
48874;BME280;66155;46.204;5.220;2022-12-29T05:49:22;98660.97;;;10.98;62.27
48874;BME280;66155;46.204;5.220;2022-12-29T05:54:23;98682.69;;;11.09;62.53
48874;BME280;66155;46.204;5.220;2022-12-29T05:59:23;98671.78;;;11.17;61.97
48874;BME280;66155;46.204;5.220;2022-12-29T06:04:24;98692.13;;;11.20;61.54
48874;BME280;66155;46.204;5.220;2022-12-29T06:09:25;98699.50;;;11.28;61.59
48874;BME280;66155;46.204;5.220;2022-12-29T06:14:25;98689.56;;;11.25;61.44
48874;BME280;66155;46.204;5.220;2022-12-29T06:19:26;98700.50;;;11.22;61.16
48874;BME280;66155;46.204;5.220;2022-12-29T06:24:26;98701.00;;;11.19;61.41
48874;BME280;66155;46.204;5.220;2022-12-29T06:29:26;98708.81;;;11.19;61.45
48874;BME280;66155;46.204;5.220;2022-12-29T06:34:27;98695.81;;;11.24;60.91
48874;BME280;66155;46.204;5.220;2022-12-29T06:39:28;98704.72;;;11.28;61.21
48874;BME280;66155;46.204;5.220;2022-12-29T06:44:29;98699.25;;;11.30;60.94
48874;BME280;66155;46.204;5.220;2022-12-29T06:49:29;98699.28;;;11.35;60.50
48874;BME280;66155;46.204;5.220;2022-12-29T06:54:30;98689.38;;;11.32;60.56
48874;BME280;66155;46.204;5.220;2022-12-29T06:59:31;98689.38;;;11.37;60.62
48874;BME280;66155;46.204;5.220;2022-12-29T07:04:32;98684.94;;;11.32;60.65
48874;BME280;66155;46.204;5.220;2022-12-29T07:09:32;98690.66;;;11.34;60.73
48874;BME280;66155;46.204;5.220;2022-12-29T07:14:33;98693.31;;;11.39;60.75
48874;BME280;66155;46.204;5.220;2022-12-29T07:19:33;98703.25;;;11.43;61.08
48874;BME280;66155;46.204;5.220;2022-12-29T07:24:34;98697.50;;;11.40;60.87
48874;BME280;66155;46.204;5.220;2022-12-29T07:29:36;98699.06;;;11.41;60.43
48874;BME280;66155;46.204;5.220;2022-12-29T07:34:40;98685.53;;;11.45;60.68
48874;BME280;66155;46.204;5.220;2022-12-29T07:39:40;98704.56;;;11.45;60.60
48874;BME280;66155;46.204;5.220;2022-12-29T07:44:41;98713.75;;;11.53;60.36
48874;BME280;66155;46.204;5.220;2022-12-29T07:49:41;98723.19;;;11.59;60.26
48874;BME280;66155;46.204;5.220;2022-12-29T07:54:41;98697.88;;;11.59;60.18
48874;BME280;66155;46.204;5.220;2022-12-29T07:59:42;98694.72;;;11.57;59.72
48874;BME280;66155;46.204;5.220;2022-12-29T08:04:43;98714.09;;;11.67;59.80
48874;BME280;66155;46.204;5.220;2022-12-29T08:09:43;98708.88;;;11.67;59.17
48874;BME280;66155;46.204;5.220;2022-12-29T08:14:44;98726.63;;;11.70;59.75
48874;BME280;66155;46.204;5.220;2022-12-29T08:19:44;98715.47;;;11.74;59.46
48874;BME280;66155;46.204;5.220;2022-12-29T08:24:45;98721.50;;;11.85;58.98
48874;BME280;66155;46.204;5.220;2022-12-29T08:29:45;98713.44;;;11.87;59.09
48874;BME280;66155;46.204;5.220;2022-12-29T08:34:46;98731.44;;;11.88;59.08
48874;BME280;66155;46.204;5.220;2022-12-29T08:39:46;98711.66;;;11.92;59.12
48874;BME280;66155;46.204;5.220;2022-12-29T08:44:47;98691.03;;;11.96;58.65
48874;BME280;66155;46.204;5.220;2022-12-29T08:49:47;98706.75;;;12.06;59.09
48874;BME280;66155;46.204;5.220;2022-12-29T08:54:47;98693.69;;;12.11;58.73
48874;BME280;66155;46.204;5.220;2022-12-29T08:59:48;98696.88;;;12.13;58.54
48874;BME280;66155;46.204;5.220;2022-12-29T09:04:48;98701.03;;;12.20;58.71
48874;BME280;66155;46.204;5.220;2022-12-29T09:09:49;98699.47;;;12.24;58.69
48874;BME280;66155;46.204;5.220;2022-12-29T09:14:49;98699.78;;;12.32;58.67
48874;BME280;66155;46.204;5.220;2022-12-29T09:19:49;98694.56;;;12.38;58.22
48874;BME280;66155;46.204;5.220;2022-12-29T09:24:50;98690.66;;;12.45;57.98
48874;BME280;66155;46.204;5.220;2022-12-29T09:29:51;98704.78;;;12.49;57.80
48874;BME280;66155;46.204;5.220;2022-12-29T09:34:51;98708.72;;;12.57;57.29
48874;BME280;66155;46.204;5.220;2022-12-29T09:39:51;98700.88;;;12.57;57.10
48874;BME280;66155;46.204;5.220;2022-12-29T09:45:18;98662.97;;;12.65;56.44
48874;BME280;66155;46.204;5.220;2022-12-29T09:50:33;98708.22;;;12.70;56.27
48874;BME280;66155;46.204;5.220;2022-12-29T09:55:41;98706.66;;;12.69;56.32
48874;BME280;66155;46.204;5.220;2022-12-29T10:06:06;98725.72;;;12.65;56.36
48874;BME280;66155;46.204;5.220;2022-12-29T10:11:23;98735.66;;;12.68;56.23
48874;BME280;66155;46.204;5.220;2022-12-29T10:26:57;98728.88;;;12.62;57.16
48874;BME280;66155;46.204;5.220;2022-12-29T10:32:00;98730.41;;;12.52;57.51
48874;BME280;66155;46.204;5.220;2022-12-29T10:37:05;98732.22;;;12.52;57.86
48874;BME280;66155;46.204;5.220;2022-12-29T10:42:28;98725.69;;;12.49;58.67
48874;BME280;66155;46.204;5.220;2022-12-29T10:47:33;98734.84;;;12.57;58.56
48874;BME280;66155;46.204;5.220;2022-12-29T10:52:37;98735.91;;;12.56;58.89
48874;BME280;66155;46.204;5.220;2022-12-29T10:57:41;98720.97;;;12.46;59.25
48874;BME280;66155;46.204;5.220;2022-12-29T11:02:58;98714.19;;;12.50;59.34
48874;BME280;66155;46.204;5.220;2022-12-29T11:08:04;98704.28;;;12.58;59.22
48874;BME280;66155;46.204;5.220;2022-12-29T11:13:16;98687.03;;;12.57;59.58
48874;BME280;66155;46.204;5.220;2022-12-29T11:23:37;98685.72;;;12.59;59.34
48874;BME280;66155;46.204;5.220;2022-12-29T11:28:40;98679.22;;;12.62;59.46
48874;BME280;66155;46.204;5.220;2022-12-29T11:33:41;98678.41;;;12.61;59.85
48874;BME280;66155;46.204;5.220;2022-12-29T11:38:47;98660.66;;;12.63;59.69
48874;BME280;66155;46.204;5.220;2022-12-29T11:43:48;98660.38;;;12.65;59.49
48874;BME280;66155;46.204;5.220;2022-12-29T11:48:49;98638.94;;;12.68;59.64
48874;BME280;66155;46.204;5.220;2022-12-29T11:53:55;98634.50;;;12.73;59.74
48874;BME280;66155;46.204;5.220;2022-12-29T11:58:56;98628.22;;;12.74;59.35
48874;BME280;66155;46.204;5.220;2022-12-29T12:04:03;98620.91;;;12.82;59.24
48874;BME280;66155;46.204;5.220;2022-12-29T12:09:10;98616.47;;;12.82;59.50
48874;BME280;66155;46.204;5.220;2022-12-29T12:14:21;98598.66;;;12.89;59.39
48874;BME280;66155;46.204;5.220;2022-12-29T12:19:31;98597.38;;;12.97;59.23
48874;BME280;66155;46.204;5.220;2022-12-29T12:30:02;98585.34;;;12.96;59.28
48874;BME280;66155;46.204;5.220;2022-12-29T12:35:04;98583.47;;;13.02;59.29
48874;BME280;66155;46.204;5.220;2022-12-29T13:06:41;98546.88;;;13.02;59.73
48874;BME280;66155;46.204;5.220;2022-12-29T13:17:14;98534.50;;;13.28;59.10
48874;BME280;66155;46.204;5.220;2022-12-29T13:38:34;98499.44;;;13.84;57.57
48874;BME280;66155;46.204;5.220;2022-12-29T13:43:39;98491.03;;;13.87;57.66
48874;BME280;66155;46.204;5.220;2022-12-29T13:48:47;98495.22;;;13.88;57.53
48874;BME280;66155;46.204;5.220;2022-12-29T14:04:26;98502.97;;;13.59;58.62
48874;BME280;66155;46.204;5.220;2022-12-29T14:09:48;98512.44;;;13.55;58.35
48874;BME280;66155;46.204;5.220;2022-12-29T14:14:51;98505.38;;;13.50;58.63
48874;BME280;66155;46.204;5.220;2022-12-29T14:19:53;98505.94;;;13.47;58.52
48874;BME280;66155;46.204;5.220;2022-12-29T14:24:54;98512.75;;;13.43;58.87
48874;BME280;66155;46.204;5.220;2022-12-29T14:29:55;98497.88;;;13.38;59.04
48874;BME280;66155;46.204;5.220;2022-12-29T14:34:57;98498.94;;;13.32;59.24
48874;BME280;66155;46.204;5.220;2022-12-29T14:50:17;98522.53;;;13.11;61.73
48874;BME280;66155;46.204;5.220;2022-12-29T15:00:41;98544.00;;;12.98;63.13
48874;BME280;66155;46.204;5.220;2022-12-29T15:10:51;98574.09;;;12.85;64.95
48874;BME280;66155;46.204;5.220;2022-12-29T15:15:52;98584.59;;;12.54;67.49
48874;BME280;66155;46.204;5.220;2022-12-29T15:20:55;98586.91;;;12.30;69.27
48874;BME280;66155;46.204;5.220;2022-12-29T15:25:58;98595.28;;;12.17;70.23
48874;BME280;66155;46.204;5.220;2022-12-29T15:31:05;98626.56;;;12.02;72.98
48874;BME280;66155;46.204;5.220;2022-12-29T15:36:12;98651.53;;;11.82;76.37
48874;BME280;66155;46.204;5.220;2022-12-29T15:41:29;98656.09;;;11.54;77.21
48874;BME280;66155;46.204;5.220;2022-12-29T15:46:32;98653.88;;;11.31;75.99
48874;BME280;66155;46.204;5.220;2022-12-29T15:51:36;98660.06;;;11.19;75.93
48874;BME280;66155;46.204;5.220;2022-12-29T15:56:37;98666.19;;;11.03;76.35
48874;BME280;66155;46.204;5.220;2022-12-29T16:01:38;98654.91;;;10.92;76.92
48874;BME280;66155;46.204;5.220;2022-12-29T16:06:44;98652.47;;;10.80;77.87
48874;BME280;66155;46.204;5.220;2022-12-29T16:11:56;98652.19;;;10.77;76.78
48874;BME280;66155;46.204;5.220;2022-12-29T16:17:01;98669.28;;;10.68;76.83
48874;BME280;66155;46.204;5.220;2022-12-29T16:22:10;98675.16;;;10.53;78.86
48874;BME280;66155;46.204;5.220;2022-12-29T16:27:20;98671.97;;;10.45;79.35
48874;BME280;66155;46.204;5.220;2022-12-29T16:32:28;98680.72;;;10.34;79.59
48874;BME280;66155;46.204;5.220;2022-12-29T16:37:32;98680.81;;;10.22;79.26
48874;BME280;66155;46.204;5.220;2022-12-29T16:42:46;98678.41;;;10.38;79.08
48874;BME280;66155;46.204;5.220;2022-12-29T16:53:30;98690.38;;;10.39;79.60
48874;BME280;66155;46.204;5.220;2022-12-29T16:58:32;98701.91;;;10.43;77.78
48874;BME280;66155;46.204;5.220;2022-12-29T17:03:46;98687.41;;;10.52;77.96
48874;BME280;66155;46.204;5.220;2022-12-29T17:08:48;98697.72;;;10.42;77.33
48874;BME280;66155;46.204;5.220;2022-12-29T17:13:49;98698.84;;;10.51;77.12
48874;BME280;66155;46.204;5.220;2022-12-29T17:18:50;98704.88;;;10.57;77.39
48874;BME280;66155;46.204;5.220;2022-12-29T17:23:50;98704.88;;;10.57;76.98
48874;BME280;66155;46.204;5.220;2022-12-29T17:28:50;98715.88;;;10.59;77.01
48874;BME280;66155;46.204;5.220;2022-12-29T17:33:51;98727.31;;;10.58;76.99
48874;BME280;66155;46.204;5.220;2022-12-29T17:38:54;98727.72;;;10.50;77.24
48874;BME280;66155;46.204;5.220;2022-12-29T17:43:54;98735.50;;;10.44;77.77
48874;BME280;66155;46.204;5.220;2022-12-29T17:48:55;98742.81;;;10.48;77.00
48874;BME280;66155;46.204;5.220;2022-12-29T17:53:55;98744.91;;;10.45;77.10
48874;BME280;66155;46.204;5.220;2022-12-29T17:58:56;98718.72;;;10.35;78.16
48874;BME280;66155;46.204;5.220;2022-12-29T18:03:56;98725.59;;;10.24;79.38
48874;BME280;66155;46.204;5.220;2022-12-29T18:08:56;98733.66;;;10.23;79.05
48874;BME280;66155;46.204;5.220;2022-12-29T18:13:57;98743.53;;;10.21;78.90
48874;BME280;66155;46.204;5.220;2022-12-29T18:18:57;98747.66;;;10.17;79.00
48874;BME280;66155;46.204;5.220;2022-12-29T18:23:58;98741.84;;;10.09;79.01
48874;BME280;66155;46.204;5.220;2022-12-29T18:28:58;98729.06;;;10.08;79.26
48874;BME280;66155;46.204;5.220;2022-12-29T18:34:00;98728.75;;;10.04;79.26
48874;BME280;66155;46.204;5.220;2022-12-29T18:39:01;98717.19;;;9.95;79.59
48874;BME280;66155;46.204;5.220;2022-12-29T18:44:01;98722.56;;;9.88;79.93
48874;BME280;66155;46.204;5.220;2022-12-29T18:49:02;98727.78;;;9.88;80.04
48874;BME280;66155;46.204;5.220;2022-12-29T18:54:02;98724.81;;;9.80;80.44
48874;BME280;66155;46.204;5.220;2022-12-29T18:59:03;98720.59;;;9.96;79.86
48874;BME280;66155;46.204;5.220;2022-12-29T19:04:06;98720.94;;;10.04;79.08
48874;BME280;66155;46.204;5.220;2022-12-29T19:09:07;98710.84;;;10.08;78.94
48874;BME280;66155;46.204;5.220;2022-12-29T19:14:13;98710.31;;;10.06;79.37
48874;BME280;66155;46.204;5.220;2022-12-29T19:19:18;98706.88;;;10.05;79.18
48874;BME280;66155;46.204;5.220;2022-12-29T19:24:18;98706.06;;;10.00;79.58
48874;BME280;66155;46.204;5.220;2022-12-29T19:29:19;98694.44;;;10.07;78.87
48874;BME280;66155;46.204;5.220;2022-12-29T19:34:19;98695.22;;;10.08;78.75
48874;BME280;66155;46.204;5.220;2022-12-29T19:39:19;98708.97;;;10.03;79.64
48874;BME280;66155;46.204;5.220;2022-12-29T19:44:20;98705.75;;;9.96;79.11
48874;BME280;66155;46.204;5.220;2022-12-29T19:49:21;98695.84;;;9.93;78.93
48874;BME280;66155;46.204;5.220;2022-12-29T19:54:22;98710.84;;;9.86;79.30
48874;BME280;66155;46.204;5.220;2022-12-29T19:59:23;98708.78;;;9.88;79.10
48874;BME280;66155;46.204;5.220;2022-12-29T20:04:23;98709.03;;;9.86;78.96
48874;BME280;66155;46.204;5.220;2022-12-29T20:09:23;98700.66;;;9.84;78.48
48874;BME280;66155;46.204;5.220;2022-12-29T20:14:24;98713.09;;;9.82;78.14
48874;BME280;66155;46.204;5.220;2022-12-29T20:19:24;98708.78;;;9.88;77.79
48874;BME280;66155;46.204;5.220;2022-12-29T20:24:25;98705.13;;;9.89;77.80
48874;BME280;66155;46.204;5.220;2022-12-29T20:29:25;98708.25;;;9.86;77.55
48874;BME280;66155;46.204;5.220;2022-12-29T20:34:26;98709.03;;;9.86;77.91
48874;BME280;66155;46.204;5.220;2022-12-29T20:39:26;98712.00;;;9.95;77.34
48874;BME280;66155;46.204;5.220;2022-12-29T20:44:28;98719.31;;;9.98;76.83
48874;BME280;66155;46.204;5.220;2022-12-29T20:49:29;98718.13;;;10.06;76.99
48874;BME280;66155;46.204;5.220;2022-12-29T20:54:30;98717.88;;;10.07;76.99
48874;BME280;66155;46.204;5.220;2022-12-29T20:59:31;98726.69;;;10.06;77.11
48874;BME280;66155;46.204;5.220;2022-12-29T21:04:31;98734.75;;;10.05;77.13
48874;BME280;66155;46.204;5.220;2022-12-29T21:09:32;98743.47;;;9.94;77.61
48874;BME280;66155;46.204;5.220;2022-12-29T21:14:33;98753.72;;;10.00;77.58
48874;BME280;66155;46.204;5.220;2022-12-29T21:19:33;98773.94;;;9.76;78.44
48874;BME280;66155;46.204;5.220;2022-12-29T21:24:34;98766.28;;;9.69;78.77
48874;BME280;66155;46.204;5.220;2022-12-29T21:29:34;98783.47;;;9.54;80.20
48874;BME280;66155;46.204;5.220;2022-12-29T21:34:34;98795.31;;;9.61;79.05
48874;BME280;66155;46.204;5.220;2022-12-29T21:39:35;98793.50;;;9.62;79.24
48874;BME280;66155;46.204;5.220;2022-12-29T21:44:36;98798.44;;;9.29;81.67
48874;BME280;66155;46.204;5.220;2022-12-29T21:49:55;98790.41;;;9.48;81.29
48874;BME280;66155;46.204;5.220;2022-12-29T21:54:55;98793.03;;;9.31;81.20
48874;BME280;66155;46.204;5.220;2022-12-29T22:00:05;98793.34;;;9.35;81.19
48874;BME280;66155;46.204;5.220;2022-12-29T22:05:28;98793.31;;;9.51;80.38
48874;BME280;66155;46.204;5.220;2022-12-29T22:10:47;98799.00;;;9.65;79.99
48874;BME280;66155;46.204;5.220;2022-12-29T22:16:08;98806.78;;;9.48;80.80
48874;BME280;66155;46.204;5.220;2022-12-29T22:21:10;98811.63;;;9.57;80.83
48874;BME280;66155;46.204;5.220;2022-12-29T22:26:12;98816.13;;;9.61;79.91
48874;BME280;66155;46.204;5.220;2022-12-29T22:31:24;98833.13;;;9.52;81.64
48874;BME280;66155;46.204;5.220;2022-12-29T22:36:27;98849.69;;;9.63;80.37
48874;BME280;66155;46.204;5.220;2022-12-29T22:41:28;98861.91;;;9.45;81.73
48874;BME280;66155;46.204;5.220;2022-12-29T22:46:28;98863.59;;;9.23;83.08
48874;BME280;66155;46.204;5.220;2022-12-29T22:51:29;98848.34;;;9.43;81.18
48874;BME280;66155;46.204;5.220;2022-12-29T22:56:29;98842.06;;;9.56;80.43
48874;BME280;66155;46.204;5.220;2022-12-29T23:01:30;98832.75;;;9.60;80.75
48874;BME280;66155;46.204;5.220;2022-12-29T23:06:31;98834.97;;;9.68;80.41
48874;BME280;66155;46.204;5.220;2022-12-29T23:11:31;98837.56;;;9.68;81.30
48874;BME280;66155;46.204;5.220;2022-12-29T23:16:32;98826.66;;;9.71;80.80
48874;BME280;66155;46.204;5.220;2022-12-29T23:21:33;98827.69;;;9.87;80.13
48874;BME280;66155;46.204;5.220;2022-12-29T23:26:36;98815.78;;;9.92;80.20
48874;BME280;66155;46.204;5.220;2022-12-29T23:31:37;98816.56;;;9.92;79.67
48874;BME280;66155;46.204;5.220;2022-12-29T23:36:38;98830.59;;;9.91;79.61
48874;BME280;66155;46.204;5.220;2022-12-29T23:41:38;98817.13;;;9.94;79.82
48874;BME280;66155;46.204;5.220;2022-12-29T23:46:39;98811.91;;;9.94;80.01
48874;BME280;66155;46.204;5.220;2022-12-29T23:51:40;98814.03;;;9.97;79.66
48874;BME280;66155;46.204;5.220;2022-12-29T23:56:40;98812.34;;;9.86;80.12
